Wetterdaten: Woche 11.05.15 - 17.05.15 (KW20)
Datum Zeit Temp. A. Feuchte A. Luftdruck Regen Wind Richtung Sonnenschein ET UV Solar Taupunkt Windchill Windben
11.05.2015 00:00 6,7 C 91 % 1027,8 hPa 0,0 l/m 0,0 km/h (0 Bft) N 0,00 h 0,000 mm 0,0 UV-I 0 W/m 5,2 C 6,7 C 0,4 km/h (0 Bft)
11.05.2015 01:00 5,8 C 91 % 1027,7 hPa 0,0 l/m 0,1 km/h (0 Bft) N 0,00 h 0,000 mm 0,0 UV-I 0 W/m 4,4 C 5,8 C 0,5 km/h (0 Bft)
11.05.2015 02:00 5,4 C 91 % 1027,6 hPa 0,0 l/m 0,0 km/h (0 Bft) N 0,00 h 0,000 mm 0,0 UV-I 0 W/m 4,0 C 5,4 C 0,1 km/h (0 Bft)
11.05.2015 03:00 4,7 C 93 % 1027,7 hPa 0,0 l/m 0,1 km/h (0 Bft) N 0,00 h 0,000 mm 0,0 UV-I 0 W/m 3,6 C 4,7 C 0,2 km/h (0 Bft)
11.05.2015 04:00 4,3 C 93 % 1027,7 hPa 0,0 l/m 0,0 km/h (0 Bft) N 0,00 h 0,000 mm 0,0 UV-I 0 W/m 3,3 C 4,3 C 0,0 km/h (0 Bft)
11.05.2015 05:00 4,0 C 94 % 1027,7 hPa 0,0 l/m 0,1 km/h (0 Bft) N 0,00 h 0,000 mm 0,0 UV-I 7 W/m 3,1 C 4,0 C 0,5 km/h (0 Bft)
11.05.2015 06:00 4,2 C 94 % 1027,7 hPa 0,0 l/m 0,3 km/h (0 Bft) N 0,00 h 0,000 mm 0,0 UV-I 21 W/m 3,3 C 4,2 C 1,0 km/h (0 Bft)
11.05.2015 07:00 7,4 C 89 % 1027,8 hPa 0,0 l/m 0,1 km/h (0 Bft) N 0,72 h 0,000 mm 0,7 UV-I 182 W/m 5,7 C 7,4 C 0,5 km/h (0 Bft)
11.05.2015 08:00 11,5 C 71 % 1028,0 hPa 0,0 l/m 0,7 km/h (0 Bft) N 1,00 h 0,076 mm 1,3 UV-I 352 W/m 6,4 C 11,5 C 2,3 km/h (1 Bft)
11.05.2015 09:00 14,9 C 59 % 1027,9 hPa 0,0 l/m 0,8 km/h (0 Bft) N 1,00 h 0,178 mm 2,4 UV-I 560 W/m 7,0 C 14,8 C 2,4 km/h (1 Bft)
11.05.2015 10:00 16,9 C 53 % 1027,5 hPa 0,0 l/m 1,3 km/h (1 Bft) O-SO 1,00 h 0,279 mm 3,4 UV-I 689 W/m 7,2 C 16,9 C 3,6 km/h (1 Bft)
11.05.2015 11:00 17,9 C 49 % 1027,0 hPa 0,0 l/m 2,5 km/h (1 Bft) SO 1,00 h 0,381 mm 4,2 UV-I 678 W/m 7,1 C 17,8 C 5,8 km/h (2 Bft)
11.05.2015 12:00 19,1 C 47 % 1026,3 hPa 0,0 l/m 4,8 km/h (1 Bft) SO 1,00 h 0,381 mm 5,2 UV-I 800 W/m 7,4 C 18,8 C 10,0 km/h (2 Bft)
11.05.2015 13:00 20,2 C 45 % 1025,8 hPa 0,0 l/m 3,7 km/h (1 Bft) SO 1,00 h 0,483 mm 5,3 UV-I 812 W/m 7,7 C 20,0 C 8,5 km/h (2 Bft)
11.05.2015 14:00 20,8 C 43 % 1025,4 hPa 0,0 l/m 2,9 km/h (1 Bft) O-SO 1,00 h 0,508 mm 4,5 UV-I 707 W/m 7,9 C 20,8 C 7,2 km/h (2 Bft)
11.05.2015 15:00 21,0 C 43 % 1024,7 hPa 0,0 l/m 2,6 km/h (1 Bft) O 1,00 h 0,432 mm 3,1 UV-I 527 W/m 7,9 C 21,0 C 6,2 km/h (2 Bft)
11.05.2015 16:00 20,5 C 45 % 1024,2 hPa 0,0 l/m 2,7 km/h (1 Bft) O 1,00 h 0,330 mm 2,0 UV-I 357 W/m 8,2 C 20,4 C 7,1 km/h (2 Bft)
11.05.2015 17:00 20,2 C 46 % 1023,7 hPa 0,0 l/m 2,1 km/h (1 Bft) O-SO 1,00 h 0,229 mm 1,3 UV-I 259 W/m 8,3 C 20,2 C 6,1 km/h (2 Bft)
11.05.2015 18:00 20,0 C 46 % 1023,1 hPa 0,0 l/m 3,5 km/h (1 Bft) O-SO 1,00 h 0,178 mm 0,7 UV-I 109 W/m 7,9 C 19,9 C 8,3 km/h (2 Bft)
11.05.2015 19:00 18,9 C 48 % 1023,2 hPa 0,0 l/m 2,2 km/h (1 Bft) SO 0,23 h 0,102 mm 0,5 UV-I 43 W/m 7,8 C 18,9 C 5,7 km/h (2 Bft)
11.05.2015 20:00 17,3 C 54 % 1023,3 hPa 0,0 l/m 1,6 km/h (1 Bft) O-SO 0,00 h 0,051 mm 0,0 UV-I 16 W/m 7,8 C 17,3 C 4,3 km/h (1 Bft)
11.05.2015 21:00 15,3 C 60 % 1023,5 hPa 0,0 l/m 0,3 km/h (0 Bft) N 0,00 h 0,025 mm 0,0 UV-I 0 W/m 7,5 C 15,3 C 1,3 km/h (1 Bft)
11.05.2015 22:00 14,4 C 62 % 1023,3 hPa 0,0 l/m 1,0 km/h (0 Bft) N 0,00 h 0,025 mm 0,0 UV-I 0 W/m 7,2 C 14,4 C 2,5 km/h (1 Bft)
11.05.2015 23:00 12,0 C 74 % 1023,4 hPa 0,0 l/m 0,0 km/h (0 Bft) N 0,00 h 0,025 mm 0,0 UV-I 0 W/m 7,5 C 12,0 C 0,3 km/h (0 Bft)
12.05.2015 00:00 10,3 C 83 % 1023,3 hPa 0,0 l/m 0,1 km/h (0 Bft) N 0,00 h 0,025 mm 0,0 UV-I 0 W/m 7,5 C 10,3 C 0,3 km/h (0 Bft)
12.05.2015 01:00 9,8 C 84 % 1022,7 hPa 0,0 l/m 0,1 km/h (0 Bft) N 0,00 h 0,000 mm 0,0 UV-I 0 W/m 7,3 C 9,8 C 0,4 km/h (0 Bft)
12.05.2015 02:00 9,1 C 87 % 1022,4 hPa 0,0 l/m 0,2 km/h (0 Bft) N 0,00 h 0,000 mm 0,0 UV-I 0 W/m 7,0 C 9,1 C 0,4 km/h (0 Bft)
12.05.2015 03:00 8,2 C 90 % 1022,2 hPa 0,0 l/m 0,0 km/h (0 Bft) N 0,00 h 0,000 mm 0,0 UV-I 0 W/m 6,7 C 8,2 C 0,0 km/h (0 Bft)
12.05.2015 04:00 7,4 C 92 % 1021,9 hPa 0,0 l/m 0,0 km/h (0 Bft) N 0,00 h 0,000 mm 0,0 UV-I 0 W/m 6,2 C 7,4 C 0,1 km/h (0 Bft)
12.05.2015 05:00 6,8 C 93 % 1021,7 hPa 0,0 l/m 0,0 km/h (0 Bft) N 0,00 h 0,000 mm 0,0 UV-I 9 W/m 5,7 C 6,8 C 0,0 km/h (0 Bft)
12.05.2015 06:00 7,1 C 92 % 1021,6 hPa 0,0 l/m 0,1 km/h (0 Bft) N 0,00 h 0,000 mm 0,0 UV-I 22 W/m 5,9 C 7,1 C 0,2 km/h (0 Bft)
12.05.2015 07:00 9,8 C 86 % 1021,3 hPa 0,0 l/m 0,0 km/h (0 Bft) N 0,72 h 0,000 mm 0,8 UV-I 194 W/m 7,6 C 9,8 C 0,0 km/h (0 Bft)
12.05.2015 08:00 14,5 C 69 % 1021,1 hPa 0,0 l/m 0,1 km/h (0 Bft) N 1,00 h 0,102 mm 1,4 UV-I 378 W/m 8,8 C 14,5 C 0,6 km/h (0 Bft)
12.05.2015 09:00 16,9 C 61 % 1020,6 hPa 0,0 l/m 0,5 km/h (0 Bft) N 1,00 h 0,203 mm 2,0 UV-I 364 W/m 9,4 C 16,9 C 1,6 km/h (1 Bft)
12.05.2015 10:00 19,1 C 55 % 1020,0 hPa 0,0 l/m 3,7 km/h (1 Bft) S 1,00 h 0,203 mm 3,1 UV-I 537 W/m 9,9 C 18,9 C 8,3 km/h (2 Bft)
12.05.2015 11:00 21,0 C 52 % 1019,6 hPa 0,0 l/m 4,7 km/h (1 Bft) S 1,00 h 0,330 mm 4,4 UV-I 690 W/m 10,8 C 20,8 C 9,7 km/h (2 Bft)
12.05.2015 12:00 22,9 C 50 % 1019,1 hPa 0,0 l/m 5,7 km/h (2 Bft) S 1,00 h 0,432 mm 5,3 UV-I 787 W/m 12,1 C 22,7 C 10,4 km/h (2 Bft)
12.05.2015 13:00 24,3 C 45 % 1018,2 hPa 0,0 l/m 6,4 km/h (2 Bft) S 1,00 h 0,508 mm 4,7 UV-I 690 W/m 11,5 C 24,0 C 12,4 km/h (2 Bft)
12.05.2015 14:00 24,1 C 45 % 1017,7 hPa 0,0 l/m 8,0 km/h (2 Bft) S 1,00 h 0,483 mm 3,8 UV-I 562 W/m 11,2 C 23,5 C 15,0 km/h (3 Bft)
12.05.2015 15:00 23,8 C 47 % 1016,8 hPa 0,0 l/m 6,8 km/h (2 Bft) S 1,00 h 0,406 mm 2,7 UV-I 404 W/m 11,8 C 23,5 C 12,9 km/h (3 Bft)
12.05.2015 16:00 23,9 C 49 % 1015,9 hPa 0,0 l/m 9,6 km/h (2 Bft) S 1,00 h 0,305 mm 2,1 UV-I 376 W/m 12,5 C 23,0 C 16,4 km/h (3 Bft)
12.05.2015 17:00 23,8 C 51 % 1015,1 hPa 0,0 l/m 9,2 km/h (2 Bft) S-SO 1,00 h 0,305 mm 1,2 UV-I 259 W/m 12,9 C 23,1 C 15,9 km/h (3 Bft)
12.05.2015 18:00 23,5 C 52 % 1014,5 hPa 0,0 l/m 8,3 km/h (2 Bft) S 1,00 h 0,229 mm 0,7 UV-I 141 W/m 13,2 C 22,9 C 15,3 km/h (3 Bft)
12.05.2015 19:00 22,8 C 55 % 1014,3 hPa 0,0 l/m 6,2 km/h (2 Bft) S 0,48 h 0,152 mm 0,5 UV-I 56 W/m 13,2 C 22,5 C 11,8 km/h (2 Bft)
12.05.2015 20:00 22,0 C 57 % 1014,0 hPa 0,0 l/m 4,6 km/h (1 Bft) S 0,00 h 0,076 mm 0,0 UV-I 15 W/m 13,1 C 21,9 C 9,4 km/h (2 Bft)
12.05.2015 21:00 21,4 C 59 % 1014,4 hPa 0,0 l/m 2,3 km/h (1 Bft) S 0,00 h 0,051 mm 0,0 UV-I 0 W/m 13,0 C 21,4 C 5,9 km/h (2 Bft)
12.05.2015 22:00 20,0 C 66 % 1015,6 hPa 0,0 l/m 11,0 km/h (2 Bft) NW 0,00 h 0,051 mm 0,0 UV-I 0 W/m 13,4 C 18,3 C 19,0 km/h (3 Bft)
12.05.2015 23:00 15,7 C 84 % 1017,1 hPa 1,0 l/m 10,3 km/h (2 Bft) N 0,00 h 0,076 mm 0,0 UV-I 0 W/m 13,1 C 13,9 C 17,5 km/h (3 Bft)
13.05.2015 00:00 13,2 C 91 % 1017,9 hPa 0,2 l/m 2,1 km/h (1 Bft) N 0,00 h 0,025 mm 0,0 UV-I 0 W/m 11,8 C 13,1 C 4,4 km/h (1 Bft)
13.05.2015 01:00 12,8 C 90 % 1018,1 hPa 0,0 l/m 1,5 km/h (1 Bft) N-NW 0,00 h 0,000 mm 0,0 UV-I 0 W/m 11,2 C 12,8 C 3,6 km/h (1 Bft)
13.05.2015 02:00 11,8 C 88 % 1018,7 hPa 0,0 l/m 1,8 km/h (1 Bft) N 0,00 h 0,000 mm 0,0 UV-I 0 W/m 9,9 C 11,8 C 4,7 km/h (1 Bft)
13.05.2015 03:00 10,7 C 90 % 1019,2 hPa 0,0 l/m 3,9 km/h (1 Bft) N-NW 0,00 h 0,000 mm 0,0 UV-I 0 W/m 9,1 C 10,7 C 7,5 km/h (2 Bft)
13.05.2015 04:00 9,8 C 92 % 1019,3 hPa 0,0 l/m 1,8 km/h (1 Bft) N 0,00 h 0,000 mm 0,0 UV-I 0 W/m 8,5 C 9,8 C 4,0 km/h (1 Bft)
13.05.2015 05:00 8,8 C 94 % 1019,6 hPa 0,0 l/m 0,0 km/h (0 Bft) N 0,00 h 0,000 mm 0,0 UV-I 9 W/m 7,9 C 8,8 C 0,0 km/h (0 Bft)
13.05.2015 06:00 8,7 C 95 % 1020,0 hPa 0,0 l/m 0,0 km/h (0 Bft) N 0,00 h 0,000 mm 0,0 UV-I 30 W/m 8,0 C 8,7 C 0,1 km/h (0 Bft)
13.05.2015 07:00 10,2 C 92 % 1020,2 hPa 0,0 l/m 0,4 km/h (0 Bft) N 0,85 h 0,025 mm 0,6 UV-I 178 W/m 9,0 C 10,2 C 1,4 km/h (1 Bft)
13.05.2015 08:00 12,3 C 72 % 1020,1 hPa 0,0 l/m 3,5 km/h (1 Bft) W 1,00 h 0,076 mm 1,4 UV-I 446 W/m 7,2 C 12,1 C 7,0 km/h (2 Bft)
13.05.2015 09:00 14,2 C 50 % 1019,9 hPa 0,0 l/m 7,8 km/h (2 Bft) W-NW 1,00 h 0,229 mm 2,6 UV-I 628 W/m 4,0 C 13,1 C 13,7 km/h (3 Bft)
13.05.2015 10:00 15,5 C 44 % 1019,5 hPa 0,0 l/m 5,6 km/h (2 Bft) W-NW 1,00 h 0,381 mm 3,6 UV-I 758 W/m 3,2 C 14,9 C 11,2 km/h (2 Bft)
13.05.2015 11:00 16,5 C 47 % 1018,8 hPa 0,0 l/m 2,3 km/h (1 Bft) N 1,00 h 0,432 mm 4,9 UV-I 837 W/m 5,0 C 16,5 C 5,9 km/h (2 Bft)
13.05.2015 12:00 17,4 C 45 % 1018,1 hPa 0,0 l/m 3,4 km/h (1 Bft) S 1,00 h 0,457 mm 5,1 UV-I 805 W/m 5,2 C 17,3 C 7,6 km/h (2 Bft)
13.05.2015 13:00 18,3 C 40 % 1017,1 hPa 0,0 l/m 4,2 km/h (1 Bft) S-SO 1,00 h 0,457 mm 5,2 UV-I 824 W/m 4,4 C 18,1 C 9,1 km/h (2 Bft)
13.05.2015 14:00 19,5 C 34 % 1016,3 hPa 0,0 l/m 5,3 km/h (1 Bft) W 1,00 h 0,508 mm 4,8 UV-I 842 W/m 3,2 C 19,0 C 10,6 km/h (2 Bft)
13.05.2015 15:00 19,0 C 34 % 1015,4 hPa 0,0 l/m 5,7 km/h (2 Bft) SW 1,00 h 0,533 mm 3,2 UV-I 537 W/m 2,9 C 18,6 C 11,1 km/h (2 Bft)
13.05.2015 16:00 19,7 C 35 % 1014,5 hPa 0,0 l/m 4,9 km/h (1 Bft) W 1,00 h 0,381 mm 2,7 UV-I 607 W/m 3,7 C 19,4 C 10,1 km/h (2 Bft)
13.05.2015 17:00 19,3 C 35 % 1013,5 hPa 0,0 l/m 5,2 km/h (1 Bft) W-SW 1,00 h 0,406 mm 1,5 UV-I 364 W/m 3,2 C 18,9 C 9,8 km/h (2 Bft)
13.05.2015 18:00 17,9 C 39 % 1012,6 hPa 0,0 l/m 1,5 km/h (1 Bft) N 0,90 h 0,254 mm 0,6 UV-I 101 W/m 3,6 C 17,9 C 4,1 km/h (1 Bft)
13.05.2015 19:00 17,3 C 42 % 1011,2 hPa 0,0 l/m 0,2 km/h (0 Bft) N 0,32 h 0,076 mm 0,0 UV-I 44 W/m 4,3 C 17,3 C 0,8 km/h (0 Bft)
13.05.2015 20:00 16,5 C 48 % 1011,4 hPa 0,0 l/m 1,1 km/h (0 Bft) W 0,00 h 0,025 mm 0,0 UV-I 7 W/m 5,5 C 16,5 C 3,2 km/h (1 Bft)
13.05.2015 21:00 14,3 C 67 % 1010,9 hPa 0,0 l/m 0,2 km/h (0 Bft) N 0,00 h 0,025 mm 0,0 UV-I 0 W/m 8,2 C 14,3 C 0,9 km/h (0 Bft)
13.05.2015 22:00 13,1 C 75 % 1009,9 hPa 0,0 l/m 0,1 km/h (0 Bft) N 0,00 h 0,025 mm 0,0 UV-I 0 W/m 8,8 C 13,1 C 0,5 km/h (0 Bft)
13.05.2015 23:00 12,7 C 80 % 1009,5 hPa 0,0 l/m 0,9 km/h (0 Bft) N 0,00 h 0,025 mm 0,0 UV-I 0 W/m 9,3 C 12,7 C 1,8 km/h (1 Bft)
14.05.2015 00:00 12,0 C 85 % 1009,3 hPa 0,0 l/m 0,2 km/h (0 Bft) N 0,00 h 0,025 mm 0,0 UV-I 0 W/m 9,7 C 12,0 C 0,6 km/h (0 Bft)
14.05.2015 01:00 11,9 C 86 % 1009,2 hPa 0,0 l/m 0,1 km/h (0 Bft) N 0,00 h 0,000 mm 0,0 UV-I 0 W/m 9,6 C 11,9 C 0,4 km/h (0 Bft)
14.05.2015 02:00 11,9 C 82 % 1008,9 hPa 0,0 l/m 1,3 km/h (1 Bft) N 0,00 h 0,000 mm 0,0 UV-I 0 W/m 9,0 C 11,9 C 2,8 km/h (1 Bft)
14.05.2015 03:00 11,4 C 82 % 1008,9 hPa 0,0 l/m 0,5 km/h (0 Bft) N 0,00 h 0,025 mm 0,0 UV-I 0 W/m 8,5 C 11,4 C 1,3 km/h (1 Bft)
14.05.2015 04:00 10,9 C 82 % 1009,1 hPa 0,0 l/m 3,7 km/h (1 Bft) NW 0,00 h 0,000 mm 0,0 UV-I 0 W/m 8,0 C 10,9 C 6,7 km/h (2 Bft)
14.05.2015 05:00 10,4 C 81 % 1009,4 hPa 0,0 l/m 2,2 km/h (1 Bft) N-NW 0,00 h 0,025 mm 0,0 UV-I 11 W/m 7,2 C 10,4 C 4,8 km/h (1 Bft)
14.05.2015 06:00 10,3 C 79 % 1009,8 hPa 0,0 l/m 3,7 km/h (1 Bft) N-NW 0,48 h 0,000 mm 0,0 UV-I 44 W/m 6,8 C 10,1 C 8,0 km/h (2 Bft)
14.05.2015 07:00 10,4 C 78 % 1010,3 hPa 0,0 l/m 6,8 km/h (2 Bft) N-NW 1,00 h 0,025 mm 0,7 UV-I 209 W/m 6,7 C 9,3 C 13,2 km/h (3 Bft)
14.05.2015 08:00 11,2 C 75 % 1010,9 hPa 0,0 l/m 8,1 km/h (2 Bft) N-NW 1,00 h 0,127 mm 1,2 UV-I 376 W/m 7,0 C 9,8 C 14,7 km/h (3 Bft)
14.05.2015 09:00 12,6 C 71 % 1011,1 hPa 0,0 l/m 2,9 km/h (1 Bft) N 1,00 h 0,203 mm 2,1 UV-I 493 W/m 7,5 C 12,4 C 5,8 km/h (2 Bft)
14.05.2015 10:00 14,7 C 64 % 1011,3 hPa 0,0 l/m 3,0 km/h (1 Bft) NW 1,00 h 0,279 mm 3,4 UV-I 742 W/m 7,9 C 14,5 C 7,3 km/h (2 Bft)
14.05.2015 11:00 16,0 C 57 % 1011,3 hPa 0,0 l/m 8,4 km/h (2 Bft) N-NW 1,00 h 0,381 mm 4,6 UV-I 850 W/m 7,4 C 14,7 C 15,4 km/h (3 Bft)
14.05.2015 12:00 16,6 C 52 % 1011,2 hPa 0,0 l/m 9,0 km/h (2 Bft) N 1,00 h 0,508 mm 5,0 UV-I 867 W/m 6,7 C 15,2 C 16,7 km/h (3 Bft)
14.05.2015 13:00 17,6 C 48 % 1010,9 hPa 0,0 l/m 7,2 km/h (2 Bft) N 1,00 h 0,483 mm 5,3 UV-I 907 W/m 6,6 C 16,7 C 13,4 km/h (3 Bft)
14.05.2015 14:00 18,3 C 45 % 1010,6 hPa 0,0 l/m 4,5 km/h (1 Bft) NW 1,00 h 0,533 mm 4,7 UV-I 835 W/m 6,3 C 18,0 C 10,0 km/h (2 Bft)
14.05.2015 15:00 18,1 C 45 % 1010,1 hPa 0,0 l/m 4,1 km/h (1 Bft) N 1,00 h 0,508 mm 3,1 UV-I 607 W/m 6,0 C 17,9 C 8,7 km/h (2 Bft)
14.05.2015 16:00 17,4 C 46 % 1009,7 hPa 0,0 l/m 1,5 km/h (1 Bft) N 1,00 h 0,330 mm 1,9 UV-I 347 W/m 5,5 C 17,4 C 4,1 km/h (1 Bft)
14.05.2015 17:00 17,0 C 45 % 1009,4 hPa 0,0 l/m 0,7 km/h (0 Bft) N 1,00 h 0,203 mm 1,2 UV-I 292 W/m 4,9 C 17,0 C 2,1 km/h (1 Bft)
14.05.2015 18:00 16,5 C 48 % 1009,4 hPa 0,0 l/m 2,6 km/h (1 Bft) N-NO 1,00 h 0,178 mm 0,6 UV-I 133 W/m 5,2 C 16,4 C 6,1 km/h (2 Bft)
14.05.2015 19:00 15,0 C 59 % 1009,6 hPa 0,0 l/m 1,5 km/h (1 Bft) N 0,60 h 0,102 mm 0,0 UV-I 57 W/m 6,9 C 15,0 C 4,4 km/h (1 Bft)
14.05.2015 20:00 13,5 C 63 % 1009,8 hPa 0,0 l/m 0,7 km/h (0 Bft) N 0,00 h 0,051 mm 0,0 UV-I 14 W/m 6,5 C 13,5 C 2,2 km/h (1 Bft)
14.05.2015 21:00 12,3 C 66 % 1010,3 hPa 0,0 l/m 0,1 km/h (0 Bft) N 0,00 h 0,025 mm 0,0 UV-I 0 W/m 6,0 C 12,3 C 0,5 km/h (0 Bft)
14.05.2015 22:00 11,0 C 70 % 1010,4 hPa 0,0 l/m 1,7 km/h (1 Bft) O-NO 0,00 h 0,025 mm 0,0 UV-I 0 W/m 5,7 C 11,0 C 4,5 km/h (1 Bft)
14.05.2015 23:00 10,0 C 69 % 1010,6 hPa 0,0 l/m 1,3 km/h (1 Bft) O 0,00 h 0,025 mm 0,0 UV-I 0 W/m 4,5 C 10,0 C 4,1 km/h (1 Bft)
15.05.2015 00:00 10,0 C 66 % 1010,8 hPa 0,0 l/m 2,9 km/h (1 Bft) O 0,00 h 0,025 mm 0,0 UV-I 0 W/m 4,0 C 9,9 C 7,0 km/h (2 Bft)
15.05.2015 01:00 9,5 C 69 % 1010,5 hPa 0,0 l/m 3,6 km/h (1 Bft) O 0,00 h 0,025 mm 0,0 UV-I 0 W/m 4,1 C 9,4 C 8,7 km/h (2 Bft)
15.05.2015 02:00 9,1 C 71 % 1010,2 hPa 0,0 l/m 2,7 km/h (1 Bft) O-NO 0,00 h 0,025 mm 0,0 UV-I 0 W/m 4,1 C 9,0 C 6,9 km/h (2 Bft)
15.05.2015 03:00 8,6 C 72 % 1010,3 hPa 0,0 l/m 3,7 km/h (1 Bft) O-NO 0,00 h 0,025 mm 0,0 UV-I 0 W/m 3,8 C 8,4 C 8,6 km/h (2 Bft)
15.05.2015 04:00 8,3 C 73 % 1010,3 hPa 0,0 l/m 3,2 km/h (1 Bft) O-NO 0,00 h 0,000 mm 0,0 UV-I 0 W/m 3,7 C 8,3 C 7,7 km/h (2 Bft)
15.05.2015 05:00 7,5 C 76 % 1010,5 hPa 0,0 l/m 2,9 km/h (1 Bft) N-NO 0,00 h 0,025 mm 0,0 UV-I 10 W/m 3,5 C 7,4 C 6,2 km/h (2 Bft)
15.05.2015 06:00 7,4 C 77 % 1011,0 hPa 0,0 l/m 3,0 km/h (1 Bft) NO 0,38 h 0,000 mm 0,0 UV-I 39 W/m 3,6 C 7,3 C 6,9 km/h (2 Bft)
15.05.2015 07:00 9,3 C 72 % 1011,3 hPa 0,0 l/m 3,2 km/h (1 Bft) N-NO 1,00 h 0,025 mm 0,7 UV-I 194 W/m 4,5 C 9,1 C 7,5 km/h (2 Bft)
15.05.2015 08:00 11,0 C 67 % 1011,2 hPa 0,0 l/m 2,5 km/h (1 Bft) O-NO 1,00 h 0,102 mm 1,2 UV-I 273 W/m 5,1 C 10,9 C 7,2 km/h (2 Bft)
15.05.2015 09:00 12,5 C 62 % 1011,8 hPa 0,0 l/m 3,3 km/h (1 Bft) O-NO 1,00 h 0,152 mm 1,7 UV-I 342 W/m 5,5 C 12,3 C 8,7 km/h (2 Bft)
15.05.2015 10:00 13,5 C 58 % 1012,4 hPa 0,0 l/m 4,3 km/h (1 Bft) O-NO 1,00 h 0,178 mm 2,3 UV-I 413 W/m 5,4 C 13,1 C 10,0 km/h (2 Bft)
15.05.2015 11:00 14,5 C 56 % 1012,9 hPa 0,0 l/m 2,5 km/h (1 Bft) SO 1,00 h 0,229 mm 3,3 UV-I 546 W/m 5,8 C 14,5 C 7,5 km/h (2 Bft)
15.05.2015 12:00 15,9 C 52 % 1013,0 hPa 0,0 l/m 5,2 km/h (1 Bft) SO 1,00 h 0,279 mm 4,5 UV-I 742 W/m 6,1 C 15,5 C 11,0 km/h (2 Bft)
15.05.2015 13:00 17,4 C 49 % 1012,9 hPa 0,0 l/m 4,3 km/h (1 Bft) SO 1,00 h 0,406 mm 5,2 UV-I 886 W/m 6,4 C 17,1 C 9,6 km/h (2 Bft)
15.05.2015 14:00 18,4 C 45 % 1012,9 hPa 0,0 l/m 3,0 km/h (1 Bft) SO 1,00 h 0,508 mm 4,5 UV-I 791 W/m 6,4 C 18,3 C 7,2 km/h (2 Bft)
15.05.2015 15:00 19,0 C 45 % 1012,9 hPa 0,0 l/m 2,2 km/h (1 Bft) N 1,00 h 0,457 mm 3,4 UV-I 607 W/m 6,9 C 18,9 C 5,4 km/h (1 Bft)
15.05.2015 16:00 19,8 C 40 % 1013,0 hPa 0,0 l/m 5,2 km/h (1 Bft) N-NO 1,00 h 0,381 mm 2,6 UV-I 580 W/m 6,0 C 19,4 C 9,7 km/h (2 Bft)
15.05.2015 17:00 18,6 C 42 % 1013,5 hPa 0,0 l/m 5,1 km/h (1 Bft) N 1,00 h 0,381 mm 1,5 UV-I 340 W/m 5,4 C 18,2 C 9,9 km/h (2 Bft)
15.05.2015 18:00 17,6 C 46 % 1014,2 hPa 0,0 l/m 7,9 km/h (2 Bft) N 1,00 h 0,229 mm 0,7 UV-I 95 W/m 5,8 C 16,5 C 13,9 km/h (3 Bft)
15.05.2015 19:00 15,7 C 50 % 1015,0 hPa 0,0 l/m 11,1 km/h (2 Bft) N 0,27 h 0,127 mm 0,5 UV-I 38 W/m 5,3 C 13,6 C 18,0 km/h (3 Bft)
15.05.2015 20:00 13,4 C 57 % 1015,6 hPa 0,0 l/m 6,3 km/h (2 Bft) N 0,00 h 0,102 mm 0,0 UV-I 12 W/m 5,1 C 12,8 C 11,8 km/h (2 Bft)
15.05.2015 21:00 12,0 C 63 % 1016,7 hPa 0,0 l/m 0,3 km/h (0 Bft) N 0,00 h 0,051 mm 0,0 UV-I 0 W/m 5,1 C 12,0 C 0,9 km/h (0 Bft)
15.05.2015 22:00 10,2 C 73 % 1017,6 hPa 0,0 l/m 0,0 km/h (0 Bft) N 0,00 h 0,025 mm 0,0 UV-I 0 W/m 5,5 C 10,2 C 0,0 km/h (0 Bft)
15.05.2015 23:00 8,5 C 82 % 1018,5 hPa 0,0 l/m 0,0 km/h (0 Bft) N 0,00 h 0,025 mm 0,0 UV-I 0 W/m 5,6 C 8,5 C 0,2 km/h (0 Bft)
16.05.2015 00:00 7,4 C 86 % 1018,9 hPa 0,0 l/m 0,0 km/h (0 Bft) N 0,00 h 0,000 mm 0,0 UV-I 0 W/m 5,3 C 7,4 C 0,0 km/h (0 Bft)
16.05.2015 01:00 6,4 C 89 % 1019,1 hPa 0,0 l/m 0,0 km/h (0 Bft) N 0,00 h 0,000 mm 0,0 UV-I 0 W/m 4,7 C 6,4 C 0,0 km/h (0 Bft)
16.05.2015 02:00 5,4 C 92 % 1019,3 hPa 0,0 l/m 0,0 km/h (0 Bft) N 0,00 h 0,000 mm 0,0 UV-I 0 W/m 4,2 C 5,4 C 0,0 km/h (0 Bft)
16.05.2015 03:00 4,8 C 92 % 1019,4 hPa 0,0 l/m 0,0 km/h (0 Bft) N 0,00 h 0,000 mm 0,0 UV-I 0 W/m 3,6 C 4,8 C 0,2 km/h (0 Bft)
16.05.2015 04:00 4,2 C 93 % 1019,7 hPa 0,0 l/m 0,0 km/h (0 Bft) N 0,00 h 0,000 mm 0,0 UV-I 0 W/m 3,2 C 4,2 C 0,0 km/h (0 Bft)
16.05.2015 05:00 3,6 C 93 % 1020,0 hPa 0,0 l/m 0,0 km/h (0 Bft) N 0,00 h 0,000 mm 0,0 UV-I 9 W/m 2,6 C 3,6 C 0,2 km/h (0 Bft)
16.05.2015 06:00 4,0 C 94 % 1020,4 hPa 0,0 l/m 0,0 km/h (0 Bft) N 0,00 h 0,000 mm 0,0 UV-I 21 W/m 3,1 C 4,0 C 0,1 km/h (0 Bft)
16.05.2015 07:00 6,7 C 86 % 1020,7 hPa 0,0 l/m 0,0 km/h (0 Bft) N 0,72 h 0,000 mm 0,8 UV-I 208 W/m 4,5 C 6,7 C 0,0 km/h (0 Bft)
16.05.2015 08:00 10,8 C 72 % 1021,1 hPa 0,0 l/m 0,0 km/h (0 Bft) N 1,00 h 0,076 mm 1,5 UV-I 460 W/m 6,0 C 10,8 C 0,2 km/h (0 Bft)
16.05.2015 09:00 14,9 C 59 % 1021,3 hPa 0,0 l/m 1,1 km/h (1 Bft) N 1,00 h 0,229 mm 2,5 UV-I 587 W/m 7,0 C 14,8 C 3,0 km/h (1 Bft)
16.05.2015 10:00 17,0 C 50 % 1021,0 hPa 0,0 l/m 4,0 km/h (1 Bft) S 1,00 h 0,305 mm 3,5 UV-I 707 W/m 6,4 C 16,8 C 8,7 km/h (2 Bft)
16.05.2015 11:00 18,2 C 46 % 1020,8 hPa 0,0 l/m 6,6 km/h (2 Bft) W-SW 1,00 h 0,406 mm 4,8 UV-I 802 W/m 6,3 C 17,7 C 12,8 km/h (3 Bft)
16.05.2015 12:00 19,2 C 41 % 1020,7 hPa 0,0 l/m 9,7 km/h (2 Bft) W 1,00 h 0,483 mm 5,6 UV-I 892 W/m 5,6 C 18,0 C 17,0 km/h (3 Bft)
16.05.2015 13:00 19,4 C 40 % 1020,4 hPa 0,0 l/m 10,9 km/h (2 Bft) W-SW 1,00 h 0,559 mm 5,6 UV-I 840 W/m 5,3 C 17,8 C 19,0 km/h (3 Bft)
16.05.2015 14:00 20,0 C 38 % 1020,1 hPa 0,0 l/m 10,0 km/h (2 Bft) W 1,00 h 0,559 mm 4,7 UV-I 738 W/m 5,1 C 18,7 C 18,9 km/h (3 Bft)
16.05.2015 15:00 20,2 C 39 % 1019,8 hPa 0,0 l/m 10,4 km/h (2 Bft) W-SW 1,00 h 0,508 mm 3,8 UV-I 660 W/m 5,9 C 18,8 C 19,3 km/h (3 Bft)
16.05.2015 16:00 19,7 C 40 % 1019,8 hPa 0,0 l/m 10,9 km/h (2 Bft) W 1,00 h 0,457 mm 2,2 UV-I 415 W/m 5,7 C 18,0 C 20,6 km/h (4 Bft)
16.05.2015 17:00 18,5 C 42 % 1020,2 hPa 0,0 l/m 10,9 km/h (2 Bft) W-SW 1,00 h 0,330 mm 1,1 UV-I 192 W/m 5,4 C 16,8 C 20,1 km/h (4 Bft)
16.05.2015 18:00 17,6 C 44 % 1020,4 hPa 0,0 l/m 10,7 km/h (2 Bft) W 0,85 h 0,203 mm 0,5 UV-I 84 W/m 5,1 C 15,9 C 19,0 km/h (3 Bft)
16.05.2015 19:00 16,4 C 41 % 1020,9 hPa 0,0 l/m 9,9 km/h (2 Bft) W 0,00 h 0,127 mm 0,0 UV-I 18 W/m 3,1 C 14,7 C 18,1 km/h (3 Bft)
16.05.2015 20:00 14,9 C 41 % 1021,4 hPa 0,0 l/m 9,9 km/h (2 Bft) NW 0,00 h 0,102 mm 0,0 UV-I 6 W/m 1,5 C 13,0 C 16,1 km/h (3 Bft)
16.05.2015 21:00 12,6 C 63 % 1021,9 hPa 0,0 l/m 0,7 km/h (0 Bft) N 0,00 h 0,076 mm 0,0 UV-I 0 W/m 5,8 C 12,6 C 1,9 km/h (1 Bft)
16.05.2015 22:00 12,9 C 58 % 1022,3 hPa 0,0 l/m 2,8 km/h (1 Bft) W 0,00 h 0,025 mm 0,0 UV-I 0 W/m 4,9 C 12,8 C 6,7 km/h (2 Bft)
16.05.2015 23:00 12,1 C 68 % 1022,8 hPa 0,0 l/m 8,2 km/h (2 Bft) W 0,00 h 0,051 mm 0,0 UV-I 0 W/m 6,4 C 10,6 C 15,1 km/h (3 Bft)
17.05.2015 00:00 10,5 C 85 % 1023,1 hPa 0,2 l/m 1,3 km/h (1 Bft) N 0,00 h 0,051 mm 0,0 UV-I 0 W/m 8,1 C 10,5 C 3,7 km/h (1 Bft)
17.05.2015 01:00 10,3 C 88 % 1022,9 hPa 0,0 l/m 0,0 km/h (0 Bft) N 0,00 h 0,000 mm 0,0 UV-I 0 W/m 8,4 C 10,3 C 0,1 km/h (0 Bft)
17.05.2015 02:00 10,3 C 88 % 1022,8 hPa 0,0 l/m 1,3 km/h (1 Bft) W-SW 0,00 h 0,000 mm 0,0 UV-I 0 W/m 8,4 C 10,3 C 3,2 km/h (1 Bft)
17.05.2015 03:00 10,2 C 89 % 1022,8 hPa 0,0 l/m 1,4 km/h (1 Bft) W-SW 0,00 h 0,000 mm 0,0 UV-I 0 W/m 8,4 C 10,2 C 4,9 km/h (1 Bft)
17.05.2015 04:00 10,0 C 90 % 1022,8 hPa 0,0 l/m 1,4 km/h (1 Bft) W-SW 0,00 h 0,000 mm 0,0 UV-I 0 W/m 8,4 C 10,0 C 4,2 km/h (1 Bft)
17.05.2015 05:00 10,1 C 89 % 1022,9 hPa 0,0 l/m 1,2 km/h (1 Bft) W 0,00 h 0,000 mm 0,0 UV-I 11 W/m 8,4 C 10,1 C 3,8 km/h (1 Bft)
17.05.2015 06:00 10,1 C 84 % 1023,4 hPa 0,0 l/m 3,4 km/h (1 Bft) W-NW 0,02 h 0,000 mm 0,0 UV-I 33 W/m 7,4 C 9,7 C 7,8 km/h (2 Bft)
17.05.2015 07:00 10,1 C 77 % 1023,6 hPa 0,0 l/m 4,8 km/h (1 Bft) W-NW 0,88 h 0,025 mm 0,7 UV-I 127 W/m 6,2 C 9,6 C 10,1 km/h (2 Bft)
17.05.2015 08:00 10,9 C 72 % 1023,8 hPa 0,0 l/m 8,9 km/h (2 Bft) W-NW 1,00 h 0,076 mm 1,3 UV-I 221 W/m 5,9 C 9,0 C 16,7 km/h (3 Bft)
17.05.2015 09:00 12,1 C 65 % 1023,7 hPa 0,0 l/m 9,5 km/h (2 Bft) W-NW 1,00 h 0,152 mm 2,2 UV-I 378 W/m 5,6 C 10,1 C 17,3 km/h (3 Bft)
17.05.2015 10:00 13,7 C 57 % 1023,5 hPa 0,0 l/m 8,9 km/h (2 Bft) W-NW 1,00 h 0,229 mm 3,3 UV-I 637 W/m 5,3 C 12,0 C 15,7 km/h (3 Bft)
17.05.2015 11:00 14,9 C 53 % 1023,3 hPa 0,0 l/m 8,0 km/h (2 Bft) NW 1,00 h 0,356 mm 4,7 UV-I 727 W/m 5,2 C 13,7 C 14,9 km/h (3 Bft)
17.05.2015 12:00 15,6 C 46 % 1023,1 hPa 0,0 l/m 10,6 km/h (2 Bft) W 1,00 h 0,432 mm 5,9 UV-I 935 W/m 4,0 C 13,5 C 19,4 km/h (3 Bft)
17.05.2015 13:00 15,8 C 44 % 1022,8 hPa 0,0 l/m 10,1 km/h (2 Bft) W-SW 1,00 h 0,533 mm 6,0 UV-I 873 W/m 3,7 C 13,9 C 19,3 km/h (3 Bft)
17.05.2015 14:00 16,5 C 44 % 1022,4 hPa 0,0 l/m 9,6 km/h (2 Bft) W 1,00 h 0,533 mm 5,3 UV-I 825 W/m 4,2 C 14,9 C 18,5 km/h (3 Bft)
17.05.2015 15:00 16,5 C 43 % 1021,8 hPa 0,0 l/m 11,6 km/h (2 Bft) W 1,00 h 0,508 mm 4,2 UV-I 704 W/m 4,0 C 14,2 C 21,3 km/h (4 Bft)
17.05.2015 16:00 16,4 C 43 % 1021,5 hPa 0,0 l/m 9,3 km/h (2 Bft) W-SW 1,00 h 0,483 mm 2,9 UV-I 585 W/m 3,8 C 14,9 C 17,8 km/h (3 Bft)
17.05.2015 17:00 15,8 C 45 % 1021,4 hPa 0,0 l/m 7,7 km/h (2 Bft) W-NW 1,00 h 0,381 mm 1,5 UV-I 272 W/m 3,9 C 14,7 C 14,6 km/h (3 Bft)
17.05.2015 18:00 14,9 C 47 % 1021,2 hPa 0,0 l/m 4,5 km/h (1 Bft) W 1,00 h 0,203 mm 0,7 UV-I 92 W/m 3,6 C 14,6 C 10,2 km/h (2 Bft)
17.05.2015 19:00 14,4 C 48 % 1021,1 hPa 0,0 l/m 3,7 km/h (1 Bft) W 0,53 h 0,076 mm 0,5 UV-I 52 W/m 3,5 C 14,2 C 8,1 km/h (2 Bft)
17.05.2015 20:00 13,3 C 51 % 1021,1 hPa 0,0 l/m 0,3 km/h (0 Bft) N 0,00 h 0,051 mm 0,0 UV-I 19 W/m 3,5 C 13,3 C 1,3 km/h (1 Bft)
17.05.2015 21:00 11,6 C 62 % 1021,2 hPa 0,0 l/m 0,0 km/h (0 Bft) N 0,00 h 0,025 mm 0,0 UV-I 0 W/m 4,4 C 11,6 C 0,0 km/h (0 Bft)
17.05.2015 22:00 10,1 C 71 % 1021,2 hPa 0,0 l/m 0,0 km/h (0 Bft) N 0,00 h 0,000 mm 0,0 UV-I 0 W/m 5,1 C 10,1 C 0,0 km/h (0 Bft)
17.05.2015 23:00 8,8 C 79 % 1021,0 hPa 0,0 l/m 0,0 km/h (0 Bft) N 0,00 h 0,025 mm 0,0 UV-I 0 W/m 5,3 C 8,8 C 0,2 km/h (0 Bft)
Min-Datum _ 15.05.15 13.05.15 14.05.15 - 11.05.15 - - - - - 16.05.15 16.05.15 11.05.15
_ Min-Zeit 07:58 14:39 02:39 - 00:00 - - - - - 20:04 05:41 00:00
Minimum _ 0,0 C 30 % 1008,7 hPa - 0,0 km/h (0 Bft) - - - - - -0,6 C 3,3 C 0,0 km/h (0 Bft)
Max-Datum _ 12.05.15 13.05.15 11.05.15 12.05.15 12.05.15 - 14.05.15 16.05.15 17.05.15 17.05.15 12.05.15 12.05.15 12.05.15
_ Max-Zeit 13:50 06:42 08:20 23:18 22:17 - 08:34 13:00 12:58 12:18 23:11 13:50 22:17
Maximum _ 24,8 C 96 % 1028,1 hPa 1,0 l/m 22,5 km/h
NW (4 Bft)
- 0,10 h 0,559 mm 7,2 UV-I 1176 W/m 14,3 C 24,8 C 33,8 km/h
NW (5 Bft)
Durchschnitt _ 13,8 C 64 % 1018,1 hPa #1,4 l/m 3,5 km/h (1 Bft) N #85:57 h #28,438 mm 2,8 UV-I 397 W/m 6,5 C 13,5 C 7,1 km/h (2 Bft)